Helena, Mississippi
Current Conditions -  °F | °C
As of 7:53 PM on Wednesday 22 Oct 2014 (Local Time) from KPQL Reporting Station
Clear Clear  
Wind Chill: 59°   Ceiling: Unl
Heat Index: 59°   Visibility: 10mi
Dew Point: 50°   Wind: 7mph
Humidity: 72%   Direction: 10°N
Pressure: 30.06"   Gusts: NA
Location:  30.3649°N, 88.5432°W
Report Text: KPQL 230053Z 01006KT 10SM CLR 15/10 A3006 RMK AO2 SLP180 T01500100
Loading
Personal Weather Stations






























Interactive Weather Map
Tropical Storm Tracking
New forecast layout! Learn more

10-Day Weather Forecast

Advertisements
Track Severe Weather on mobile